Time;durP1;ratioP1;P1;durP2;ratioP2;P2;SDS_P1;SDS_P2;PMS_P1;PMS_P2;Temp;Humidity;BMP_temperature;BMP_pressure;BME280_temperature;BME280_humidity;BME280_pressure;Samples;Min_cycle;Max_cycle;Signal;HPM_P1;HPM_P2
2021/08/12 00:02:08;;;;;;;6.70;4.13;;;19.30;99.90;;;;;;5055365;28;20025;-87
2021/08/12 00:04:34;;;;;;;7.88;5.00;;;19.20;99.90;;;;;;5039090;28;20075;-85
2021/08/12 00:07:00;;;;;;;6.65;4.18;;;19.20;99.90;;;;;;5037475;28;20025;-86
2021/08/12 00:09:25;;;;;;;8.38;4.35;;;19.30;99.90;;;;;;5033958;28;20035;-86
2021/08/12 00:11:51;;;;;;;10.48;4.30;;;19.30;99.90;;;;;;5035182;28;20030;-86
2021/08/12 00:14:17;;;;;;;8.13;4.28;;;19.30;99.90;;;;;;5034800;28;20096;-87
2021/08/12 00:16:43;;;;;;;8.45;4.40;;;19.30;99.90;;;;;;5035290;28;20057;-85
2021/08/12 00:19:12;;;;;;;9.52;4.93;;;19.40;99.90;;;;;;5034842;28;20512;-86
2021/08/12 00:21:39;;;;;;;8.13;4.60;;;19.30;99.90;;;;;;5033737;28;20486;-89
2021/08/12 00:24:05;;;;;;;7.50;4.80;;;19.40;99.90;;;;;;5034965;28;20038;-86
2021/08/12 00:26:31;;;;;;;9.35;4.43;;;19.50;99.90;;;;;;5033900;28;20076;-87
2021/08/12 00:28:57;;;;;;;6.30;3.60;;;19.60;99.90;;;;;;5034848;28;20061;-87
2021/08/12 00:31:23;;;;;;;8.70;4.10;;;19.60;99.90;;;;;;5050337;28;20378;-87
2021/08/12 00:33:49;;;;;;;7.90;4.70;;;19.70;99.90;;;;;;5050480;28;20029;-87
2021/08/12 00:36:14;;;;;;;9.30;4.75;;;19.60;99.90;;;;;;5034292;28;20041;-86
2021/08/12 00:38:40;;;;;;;11.55;4.47;;;19.60;99.90;;;;;;5034288;28;20033;-87
2021/08/12 00:41:06;;;;;;;8.43;4.32;;;19.60;99.90;;;;;;5034571;28;20086;-86
2021/08/12 00:43:31;;;;;;;8.98;4.43;;;19.70;99.90;;;;;;5049932;28;20300;-87
2021/08/12 00:45:57;;;;;;;9.13;4.38;;;19.60;99.90;;;;;;5034352;28;20049;-85
2021/08/12 00:48:23;;;;;;;10.95;4.85;;;19.60;99.90;;;;;;5034403;28;20433;-85
2021/08/12 00:50:49;;;;;;;8.63;4.50;;;19.40;99.90;;;;;;5034835;28;20037;-85
2021/08/12 00:53:15;;;;;;;6.70;3.88;;;19.30;99.90;;;;;;5032222;28;20037;-86
2021/08/12 00:55:43;;;;;;;8.18;4.20;;;19.10;99.90;;;;;;5049467;28;20037;-87
2021/08/12 00:58:12;;;;;;;7.78;4.53;;;19.10;99.90;;;;;;5033119;28;20059;-87
2021/08/12 01:00:37;;;;;;;8.70;4.38;;;19.10;99.90;;;;;;5048895;28;20050;-85
2021/08/12 01:03:09;;;;;;;8.77;5.15;;;19.00;99.90;;;;;;5034158;28;20041;-86
2021/08/12 01:05:42;;;;;;;7.75;4.05;;;19.00;99.90;;;;;;5049416;28;20037;-85
2021/08/12 01:08:42;;;;;;;9.30;4.72;;;19.10;99.90;;;;;;5034709;28;20026;-85
2021/08/12 01:11:48;;;;;;;9.77;4.35;;;19.10;99.90;;;;;;5034080;28;20393;-88
2021/08/12 01:14:26;;;;;;;6.55;4.00;;;19.30;99.90;;;;;;5033640;28;20426;-86
2021/08/12 01:17:09;;;;;;;9.20;4.35;;;19.10;99.90;;;;;;5049620;28;20025;-87
2021/08/12 01:20:00;;;;;;;12.30;4.40;;;18.80;99.90;;;;;;5049162;28;20041;-87
2021/08/12 01:22:27;;;;;;;10.27;4.63;;;18.70;99.90;;;;;;5034409;28;20349;-86
2021/08/12 01:24:58;;;;;;;10.35;4.90;;;18.70;99.90;;;;;;5049330;28;20029;-87
2021/08/12 01:27:33;;;;;;;;;;;18.80;99.90;;;;;;5049940;28;20041;-87
2021/08/12 01:30:15;;;;;;;9.43;4.60;;;18.80;99.90;;;;;;5016527;28;20392;-87
2021/08/12 01:33:28;;;;;;;8.50;4.20;;;19.00;99.90;;;;;;5034103;28;20120;-87
2021/08/12 01:36:00;;;;;;;9.02;4.07;;;19.00;99.90;;;;;;5033908;28;20527;-88
2021/08/12 01:38:28;;;;;;;8.82;4.28;;;18.80;99.90;;;;;;5048610;28;20105;-87
2021/08/12 01:40:56;;;;;;;8.43;4.07;;;18.90;99.90;;;;;;5049089;28;20060;-86
2021/08/12 01:43:23;;;;;;;7.90;4.35;;;18.80;99.90;;;;;;5048712;28;20041;-88
2021/08/12 01:45:55;;;;;;;9.38;4.38;;;18.60;99.90;;;;;;5048970;28;20171;-85
2021/08/12 01:48:23;;;;;;;6.63;4.35;;;18.60;99.90;;;;;;5048346;28;20037;-86
2021/08/12 01:50:52;;;;;;;8.60;4.55;;;18.60;99.90;;;;;;5048962;28;20116;-89
2021/08/12 01:53:20;;;;;;;8.18;4.85;;;18.60;99.90;;;;;;5031886;28;20095;-85
2021/08/12 01:55:47;;;;;;;9.48;4.18;;;18.60;99.90;;;;;;5033249;28;20478;-86
2021/08/12 01:58:17;;;;;;;8.30;4.20;;;18.50;99.90;;;;;;5048427;28;20315;-88
2021/08/12 02:00:47;;;;;;;11.45;4.95;;;18.30;99.90;;;;;;5048170;28;20053;-86
2021/08/12 02:03:18;;;;;;;8.30;5.15;;;18.30;99.90;;;;;;5048596;28;20026;-85
2021/08/12 02:05:47;;;;;;;8.10;4.63;;;18.20;99.90;;;;;;5048579;28;20539;-86
2021/08/12 02:08:13;;;;;;;7.72;4.78;;;18.20;99.90;;;;;;5033201;28;20026;-87
2021/08/12 02:10:41;;;;;;;8.25;4.82;;;18.30;99.90;;;;;;5032036;28;20088;-84
2021/08/12 02:13:09;;;;;;;8.15;4.90;;;18.50;99.90;;;;;;5048541;28;20030;-86
2021/08/12 02:15:35;;;;;;;6.63;4.18;;;18.50;99.90;;;;;;5048218;28;20124;-86
2021/08/12 02:18:01;;;;;;;10.38;5.10;;;18.60;99.90;;;;;;5033188;28;20064;-86
2021/08/12 02:20:27;;;;;;;8.48;4.85;;;18.70;99.90;;;;;;5048329;28;20500;-86
2021/08/12 02:23:25;;;;;;;8.52;5.00;;;18.70;99.90;;;;;;5048118;28;20030;-85
2021/08/12 02:26:02;;;;;;;7.57;4.70;;;18.70;99.90;;;;;;5044925;28;20048;-86
2021/08/12 02:28:30;;;;;;;9.15;4.72;;;18.70;99.90;;;;;;5047719;28;20057;-85
2021/08/12 02:30:58;;;;;;;8.77;4.80;;;18.60;99.90;;;;;;5048065;28;20033;-86
2021/08/12 02:33:32;;;;;;;8.55;4.60;;;18.70;99.90;;;;;;5031202;28;20512;-85
2021/08/12 02:35:59;;;;;;;8.65;4.75;;;18.70;99.90;;;;;;5033074;28;20037;-86
2021/08/12 02:38:26;;;;;;;7.82;5.20;;;18.70;99.90;;;;;;5047729;28;20041;-85
2021/08/12 02:40:57;;;;;;;6.95;4.13;;;18.70;99.90;;;;;;5047782;28;20034;-84
2021/08/12 02:43:24;;;;;;;6.68;4.30;;;18.60;99.90;;;;;;5047767;28;20025;-86
2021/08/12 02:45:55;;;;;;;7.97;4.65;;;18.60;99.90;;;;;;5048325;28;20091;-86
2021/08/12 02:48:29;;;;;;;7.72;5.10;;;18.50;99.90;;;;;;5047493;28;20034;-85
2021/08/12 02:50:58;;;;;;;8.85;4.70;;;18.30;99.90;;;;;;5047629;28;20038;-86
2021/08/12 02:53:24;;;;;;;11.43;4.72;;;18.30;99.90;;;;;;5047484;28;20040;-85
2021/08/12 02:55:51;;;;;;;9.15;4.43;;;18.20;99.90;;;;;;5048036;28;20449;-85
2021/08/12 02:58:18;;;;;;;7.30;4.57;;;18.20;99.90;;;;;;5047811;28;20113;-85
2021/08/12 03:00:44;;;;;;;11.07;5.60;;;18.10;99.90;;;;;;5032310;28;20077;-86
2021/08/12 03:03:12;;;;;;;9.60;4.72;;;17.90;99.90;;;;;;5048269;28;20436;-84
2021/08/12 03:05:40;;;;;;;8.38;4.80;;;17.80;99.90;;;;;;5047871;28;20038;-87
2021/08/12 03:08:12;;;;;;;10.23;5.35;;;17.70;99.90;;;;;;5048382;28;20053;-86
2021/08/12 03:10:39;;;;;;;9.02;4.22;;;17.80;99.90;;;;;;5047372;28;20079;-88
2021/08/12 03:13:06;;;;;;;7.25;4.28;;;17.90;99.90;;;;;;5032855;28;20025;-87
2021/08/12 03:15:34;;;;;;;7.60;4.78;;;18.00;99.90;;;;;;5047649;28;20654;-86
2021/08/12 03:18:00;;;;;;;7.95;4.68;;;18.00;99.90;;;;;;5050572;28;20033;-86
2021/08/12 03:20:28;;;;;;;7.97;5.03;;;17.80;99.90;;;;;;5036040;28;20064;-87
2021/08/12 03:22:58;;;;;;;11.68;5.57;;;17.60;99.90;;;;;;5036402;28;20091;-86
2021/08/12 03:25:25;;;;;;;9.77;5.32;;;17.50;99.90;;;;;;5051975;28;20497;-86
2021/08/12 03:27:51;;;;;;;9.40;5.15;;;17.60;99.90;;;;;;5052091;28;20038;-86
2021/08/12 03:30:18;;;;;;;6.78;4.68;;;17.70;99.90;;;;;;5035636;28;20032;-88
2021/08/12 03:32:44;;;;;;;7.38;4.40;;;17.80;99.90;;;;;;5035894;28;20060;-88
2021/08/12 03:35:10;;;;;;;11.77;5.03;;;17.80;99.90;;;;;;5036269;28;20421;-87
2021/08/12 03:37:36;;;;;;;13.18;5.78;;;17.70;99.90;;;;;;5036513;28;20040;-89
2021/08/12 03:40:03;;;;;;;9.77;4.88;;;17.70;99.90;;;;;;5053996;28;20034;-84
2021/08/12 03:42:29;;;;;;;11.32;5.10;;;17.60;99.90;;;;;;5055306;28;20037;-86
2021/08/12 03:44:54;;;;;;;7.63;4.72;;;17.50;99.90;;;;;;5055188;28;20048;-86
2021/08/12 03:47:20;;;;;;;7.75;4.20;;;17.60;99.90;;;;;;5038951;28;20437;-84
2021/08/12 03:49:46;;;;;;;8.88;4.82;;;17.70;99.90;;;;;;5048606;28;20072;-84
2021/08/12 03:52:12;;;;;;;11.25;5.20;;;17.60;99.90;;;;;;5034821;28;20022;-82
2021/08/12 03:54:38;;;;;;;7.05;4.75;;;17.60;99.90;;;;;;5034240;28;20521;-74
2021/08/12 03:57:05;;;;;;;9.10;4.65;;;17.70;99.90;;;;;;5036945;28;20065;-74
2021/08/12 03:59:31;;;;;;;9.93;5.40;;;17.80;99.90;;;;;;5032484;28;20376;-66
2021/08/12 04:01:57;;;;;;;9.68;4.47;;;17.80;99.90;;;;;;5034347;28;20534;-65
2021/08/12 04:04:22;;;;;;;8.88;4.57;;;17.90;99.90;;;;;;5034222;28;20117;-65
2021/08/12 04:06:48;;;;;;;9.65;4.68;;;17.90;99.90;;;;;;5033077;28;20079;-64
2021/08/12 04:09:14;;;;;;;7.55;4.95;;;17.70;99.90;;;;;;5034171;28;20087;-66
2021/08/12 04:11:40;;;;;;;8.55;4.30;;;17.50;99.90;;;;;;5034181;28;20559;-65
2021/08/12 04:14:05;;;;;;;9.00;4.55;;;17.40;99.90;;;;;;5033644;28;20042;-64
2021/08/12 04:16:32;;;;;;;10.20;5.32;;;17.20;99.90;;;;;;5033474;28;20037;-66
2021/08/12 04:18:57;;;;;;;11.63;5.97;;;17.10;99.90;;;;;;5033993;28;20060;-66
2021/08/12 04:21:23;;;;;;;9.55;4.93;;;17.20;99.90;;;;;;5032635;28;20505;-65
2021/08/12 04:23:49;;;;;;;9.95;5.78;;;17.40;99.90;;;;;;5033744;28;20040;-65
2021/08/12 04:26:15;;;;;;;13.93;4.97;;;17.60;99.90;;;;;;5032513;28;20440;-65
2021/08/12 04:28:40;;;;;;;9.82;4.72;;;17.70;99.90;;;;;;5032847;28;20025;-66
2021/08/12 04:31:06;;;;;;;15.65;5.90;;;17.80;99.90;;;;;;5033572;28;20390;-67
2021/08/12 04:33:32;;;;;;;10.23;5.10;;;17.80;99.90;;;;;;5033409;28;20044;-65
2021/08/12 04:35:58;;;;;;;11.23;4.97;;;17.80;99.90;;;;;;5033677;28;20497;-65
2021/08/12 04:38:27;;;;;;;9.63;5.68;;;17.90;99.90;;;;;;5033938;28;20064;-67
2021/08/12 04:40:54;;;;;;;12.30;5.45;;;18.00;99.90;;;;;;5033768;28;20041;-65
2021/08/12 04:43:20;;;;;;;13.00;6.20;;;18.10;99.90;;;;;;5033431;28;20041;-65
2021/08/12 04:45:46;;;;;;;12.75;5.93;;;18.00;99.90;;;;;;5027947;28;20506;-65
2021/08/12 04:48:13;;;;;;;8.95;5.70;;;18.10;99.90;;;;;;5026689;28;20116;-67
2021/08/12 04:50:38;;;;;;;15.18;5.60;;;18.20;99.90;;;;;;5013406;28;20434;-66
2021/08/12 04:53:05;;;;;;;9.25;5.18;;;18.20;99.90;;;;;;5013923;28;20042;-65
2021/08/12 04:55:31;;;;;;;9.93;5.63;;;18.30;99.90;;;;;;5013567;28;20038;-67
2021/08/12 04:57:57;;;;;;;13.50;5.75;;;18.40;99.90;;;;;;5013568;28;20500;-67
2021/08/12 05:00:23;;;;;;;10.15;5.65;;;18.40;99.90;;;;;;5018416;28;20030;-66
2021/08/12 05:02:49;;;;;;;8.80;5.05;;;18.40;99.90;;;;;;5033349;28;20033;-66
2021/08/12 05:05:15;;;;;;;11.25;5.45;;;18.50;99.90;;;;;;5032953;28;20052;-67
2021/08/12 05:07:41;;;;;;;9.27;5.07;;;18.60;99.90;;;;;;5033195;28;20473;-67
2021/08/12 05:10:07;;;;;;;12.48;6.53;;;18.60;99.90;;;;;;5033197;28;20034;-67
2021/08/12 05:12:33;;;;;;;11.50;5.82;;;18.70;99.90;;;;;;5031606;28;20025;-67
2021/08/12 05:14:59;;;;;;;9.82;4.95;;;18.70;99.90;;;;;;5031614;28;20051;-67
2021/08/12 05:17:28;;;;;;;11.13;5.85;;;18.70;99.90;;;;;;5032901;28;20389;-67
2021/08/12 05:19:54;;;;;;;22.65;7.60;;;18.80;99.90;;;;;;5017416;28;20111;-68
2021/08/12 05:22:22;;;;;;;10.93;5.57;;;18.90;99.90;;;;;;5013048;28;20026;-67
2021/08/12 05:24:48;;;;;;;10.32;5.93;;;18.90;99.90;;;;;;5013187;28;20033;-68
2021/08/12 05:27:14;;;;;;;9.85;6.00;;;18.90;99.90;;;;;;5012053;28;20026;-68
2021/08/12 05:29:39;;;;;;;10.45;5.78;;;18.90;99.90;;;;;;5012740;28;20037;-68
2021/08/12 05:32:06;;;;;;;9.07;5.30;;;18.90;99.90;;;;;;5013036;28;20064;-68
2021/08/12 05:34:31;;;;;;;13.70;6.30;;;18.70;99.90;;;;;;5012786;28;20042;-67
2021/08/12 05:36:59;;;;;;;15.45;6.13;;;18.80;99.90;;;;;;5011554;28;20076;-68
2021/08/12 05:39:26;;;;;;;15.13;5.63;;;18.80;99.90;;;;;;5012666;28;20117;-67
2021/08/12 05:41:52;;;;;;;9.98;6.10;;;18.90;99.90;;;;;;5012753;28;20034;-68
2021/08/12 05:44:18;;;;;;;11.65;6.32;;;18.80;99.90;;;;;;5012658;28;20034;-64
2021/08/12 05:46:44;;;;;;;11.13;5.78;;;18.90;99.90;;;;;;5011476;28;20525;-64
2021/08/12 05:49:11;;;;;;;11.70;6.30;;;18.60;99.90;;;;;;5012808;28;20072;-65
2021/08/12 05:51:38;;;;;;;9.80;5.90;;;18.60;99.90;;;;;;5012600;28;20045;-64
2021/08/12 05:54:06;;;;;;;13.90;5.95;;;18.70;99.90;;;;;;5031150;28;20041;-65
2021/08/12 05:56:32;;;;;;;11.25;5.82;;;18.80;99.90;;;;;;5031410;28;20502;-65
2021/08/12 05:58:58;;;;;;;10.15;5.70;;;18.90;99.90;;;;;;5031581;28;20069;-65
2021/08/12 06:01:24;;;;;;;13.18;5.18;;;18.80;99.90;;;;;;5030131;28;20068;-65
2021/08/12 06:03:50;;;;;;;12.45;5.72;;;18.80;99.90;;;;;;5030598;28;20037;-65
2021/08/12 06:06:16;;;;;;;13.07;5.72;;;18.90;99.90;;;;;;5031910;28;20040;-67
2021/08/12 06:08:41;;;;;;;11.57;5.75;;;19.00;99.90;;;;;;5031941;28;20037;-67
2021/08/12 06:11:07;;;;;;;11.85;6.40;;;18.90;99.90;;;;;;5031336;28;20076;-67
2021/08/12 06:13:33;;;;;;;13.68;6.00;;;19.10;99.90;;;;;;5031192;28;20079;-67
2021/08/12 06:16:01;;;;;;;12.23;5.45;;;19.30;99.90;;;;;;5029761;28;20049;-68
2021/08/12 06:18:27;;;;;;;11.27;5.50;;;19.40;99.90;;;;;;5031302;28;20041;-67
2021/08/12 06:20:53;;;;;;;9.73;5.63;;;19.60;99.90;;;;;;5031097;28;20038;-67
2021/08/12 06:23:18;;;;;;;14.73;5.53;;;19.90;99.90;;;;;;5031001;28;20048;-67
2021/08/12 06:25:44;;;;;;;11.48;5.88;;;20.00;99.90;;;;;;5031234;28;20065;-67
2021/08/12 06:28:10;;;;;;;13.15;5.72;;;20.10;99.90;;;;;;5031807;28;20038;-67
2021/08/12 06:30:37;;;;;;;11.48;5.50;;;20.20;99.90;;;;;;5030939;28;20405;-67
2021/08/12 06:33:05;;;;;;;9.57;4.90;;;20.30;99.90;;;;;;5030917;28;20474;-68
2021/08/12 06:35:35;;;;;;;12.38;5.57;;;20.40;99.90;;;;;;5032145;28;20114;-67
2021/08/12 06:38:02;;;;;;;9.38;5.40;;;20.40;99.90;;;;;;5030896;28;20036;-68
2021/08/12 06:40:28;;;;;;;10.35;5.53;;;20.40;99.90;;;;;;5032008;28;20040;-67
2021/08/12 06:42:55;;;;;;;11.80;5.45;;;20.50;99.90;;;;;;5031727;28;20496;-68
2021/08/12 06:45:23;;;;;;;8.60;4.75;;;20.20;99.90;;;;;;5032122;28;20087;-68
2021/08/12 06:47:50;;;;;;;12.27;5.68;;;20.10;99.90;;;;;;5031928;28;20382;-67
2021/08/12 06:50:17;;;;;;;10.35;5.32;;;19.90;99.90;;;;;;5032042;28;20544;-68
2021/08/12 06:52:44;;;;;;;9.38;5.57;;;20.10;99.90;;;;;;5034341;28;20087;-68
2021/08/12 06:55:11;;;;;;;9.23;5.15;;;20.20;99.90;;;;;;5035818;28;20029;-68
2021/08/12 06:57:37;;;;;;;8.98;5.10;;;20.30;99.90;;;;;;5035662;28;20049;-67
2021/08/12 07:00:06;;;;;;;8.45;5.28;;;20.40;99.90;;;;;;5034199;28;20109;-68
2021/08/12 07:02:31;;;;;;;11.20;5.32;;;20.60;99.90;;;;;;5035704;28;20490;-68
2021/08/12 07:04:57;;;;;;;9.50;5.50;;;20.60;99.90;;;;;;5034016;28;20037;-67
2021/08/12 07:07:23;;;;;;;17.88;4.97;;;20.60;99.90;;;;;;5017831;28;20052;-67
2021/08/12 07:09:51;;;;;;;10.88;5.10;;;20.80;99.90;;;;;;5035437;28;20493;-67
2021/08/12 07:12:18;;;;;;;8.80;4.75;;;20.80;99.90;;;;;;5034772;28;20113;-68
2021/08/12 07:14:43;;;;;;;12.07;5.13;;;20.80;99.90;;;;;;5034908;28;20050;-67
2021/08/12 07:17:09;;;;;;;9.95;5.30;;;20.90;99.90;;;;;;5035531;28;20037;-67
2021/08/12 07:19:35;;;;;;;13.00;7.40;;;21.00;99.90;;;;;;5035427;28;20142;-67
2021/08/12 07:22:01;;;;;;;8.13;5.15;;;21.00;99.90;;;;;;5035040;28;20398;-68
2021/08/12 07:24:26;;;;;;;8.57;5.45;;;21.00;99.90;;;;;;5035443;28;20131;-67
2021/08/12 07:26:52;;;;;;;9.27;5.03;;;21.20;99.90;;;;;;5035073;28;20036;-67
2021/08/12 07:29:19;;;;;;;8.35;5.10;;;21.00;99.90;;;;;;5034869;28;20546;-67
2021/08/12 07:31:46;;;;;;;10.68;5.35;;;21.10;99.90;;;;;;5033661;28;20029;-67
2021/08/12 07:34:13;;;;;;;8.43;4.93;;;20.90;99.90;;;;;;5034732;28;20033;-67
2021/08/12 07:36:39;;;;;;;9.15;5.20;;;21.10;99.90;;;;;;5035115;28;20026;-68
2021/08/12 07:39:06;;;;;;;7.90;5.60;;;21.30;99.90;;;;;;5034717;28;20524;-68
2021/08/12 07:41:35;;;;;;;8.70;5.03;;;21.10;99.90;;;;;;5034788;28;20041;-67
2021/08/12 07:44:03;;;;;;;8.85;5.07;;;21.10;99.90;;;;;;5034757;28;20056;-67
2021/08/12 07:46:29;;;;;;;8.48;5.18;;;21.40;99.90;;;;;;5037398;28;20037;-66
2021/08/12 07:48:55;;;;;;;11.95;4.78;;;21.50;99.90;;;;;;5033046;28;20025;-66
2021/08/12 07:51:23;;;;;;;8.95;5.55;;;21.70;99.90;;;;;;5034610;28;20052;-66
2021/08/12 07:53:54;;;;;;;10.48;5.43;;;21.70;99.90;;;;;;5033400;28;20044;-66
2021/08/12 07:56:20;;;;;;;11.48;5.60;;;21.70;99.90;;;;;;5016687;28;20486;-66
2021/08/12 07:58:47;;;;;;;10.57;5.57;;;21.80;99.90;;;;;;5032871;28;20039;-66
2021/08/12 08:01:16;;;;;;;8.52;5.60;;;21.90;99.90;;;;;;5034118;28;20386;-66
2021/08/12 08:03:43;;;;;;;13.40;5.70;;;22.10;99.90;;;;;;5034045;28;20034;-66
2021/08/12 08:06:09;;;;;;;8.05;4.63;;;22.20;99.90;;;;;;5034584;28;20471;-66
2021/08/12 08:08:35;;;;;;;9.95;5.15;;;22.30;99.90;;;;;;5034413;28;20037;-66
2021/08/12 08:11:01;;;;;;;7.13;4.43;;;22.20;99.90;;;;;;5033173;28;20060;-66
2021/08/12 08:13:26;;;;;;;15.00;5.55;;;22.30;99.90;;;;;;5034114;28;20040;-66
2021/08/12 08:15:52;;;;;;;13.90;4.80;;;22.40;99.90;;;;;;5033818;28;20502;-66
2021/08/12 08:18:18;;;;;;;9.55;5.00;;;22.70;99.90;;;;;;5034080;28;20029;-66
2021/08/12 08:20:44;;;;;;;9.13;4.80;;;22.80;99.90;;;;;;5033787;28;20041;-66
2021/08/12 08:23:11;;;;;;;12.40;4.57;;;22.80;99.90;;;;;;5033866;28;20034;-66
2021/08/12 08:25:38;;;;;;;16.35;5.60;;;22.90;99.90;;;;;;5034248;28;20029;-66
2021/08/12 08:28:05;;;;;;;9.02;5.10;;;22.60;99.90;;;;;;5033784;28;20038;-66
2021/08/12 08:30:34;;;;;;;10.98;4.95;;;22.80;99.90;;;;;;5034166;28;20037;-66
2021/08/12 08:33:00;;;;;;;11.18;4.68;;;23.00;99.90;;;;;;5032463;28;20650;-66
2021/08/12 08:35:28;;;;;;;10.65;4.97;;;23.30;99.90;;;;;;5033688;28;20057;-67
2021/08/12 08:37:55;;;;;;;11.10;4.95;;;23.40;99.90;;;;;;5033729;28;20075;-67
2021/08/12 08:40:22;;;;;;;11.57;5.15;;;23.40;99.90;;;;;;5032403;28;20116;-66
2021/08/12 08:42:48;;;;;;;9.32;4.97;;;23.60;99.90;;;;;;5033709;28;20109;-66
2021/08/12 08:45:24;;;;;;;11.18;5.50;;;23.70;99.90;;;;;;5032549;28;20037;-66
2021/08/12 08:47:52;;;;;;;9.23;5.03;;;23.70;99.90;;;;;;5033818;28;20025;-66
2021/08/12 08:50:19;;;;;;;7.13;4.13;;;23.70;99.90;;;;;;5033564;28;20033;-66
2021/08/12 08:52:48;;;;;;;10.32;5.00;;;23.80;99.90;;;;;;5033298;28;20120;-66
2021/08/12 08:55:22;;;;;;;10.55;4.80;;;24.00;99.90;;;;;;5032185;28;20056;-67
2021/08/12 08:57:49;;;;;;;8.15;4.18;;;24.10;99.90;;;;;;5033477;28;20121;-65
2021/08/12 09:00:17;;;;;;;8.90;4.60;;;24.30;99.90;;;;;;5033199;28;20026;-65
2021/08/12 09:02:45;;;;;;;9.02;4.90;;;24.50;99.90;;;;;;5032190;28;20037;-66
2021/08/12 09:05:11;;;;;;;14.25;6.70;;;24.70;99.90;;;;;;5033304;28;20041;-66
2021/08/12 09:07:37;;;;;;;13.05;4.90;;;24.70;99.90;;;;;;5033356;28;20029;-66
2021/08/12 09:10:04;;;;;;;10.98;4.78;;;24.80;99.90;;;;;;5032935;28;20037;-66
2021/08/12 09:12:31;;;;;;;11.65;4.68;;;24.80;99.90;;;;;;5033186;28;20021;-66
2021/08/12 09:15:12;;;;;;;9.82;5.13;;;24.80;99.90;;;;;;5030948;28;20489;-65
2021/08/12 09:17:39;;;;;;;8.18;4.13;;;25.10;99.90;;;;;;5033262;28;20030;-66
2021/08/12 09:20:16;;;;;;;11.65;4.60;;;25.20;99.90;;;;;;5032871;28;20046;-66
2021/08/12 09:22:56;;;;;;;9.68;4.35;;;25.40;99.90;;;;;;5033101;28;20034;-66
2021/08/12 09:25:36;;;;;;;;;;;25.40;99.90;;;;;;5032157;28;20478;-66
2021/08/12 09:28:12;;;;;;;9.10;4.75;;;25.50;99.90;;;;;;5015407;28;19956;-66
2021/08/12 09:30:39;;;;;;;7.80;4.13;;;25.10;99.90;;;;;;5032858;28;20044;-66
2021/08/12 09:33:05;;;;;;;10.10;5.13;;;24.90;99.90;;;;;;5031461;28;20057;-67
2021/08/12 09:35:30;;;;;;;9.48;4.50;;;24.90;99.90;;;;;;5031291;28;20072;-67
2021/08/12 09:38:08;;;;;;;9.68;4.90;;;25.20;99.90;;;;;;5032646;28;20018;-67
2021/08/12 09:40:35;;;;;;;9.02;4.82;;;25.70;99.90;;;;;;5032678;28;20399;-67
2021/08/12 09:43:04;;;;;;;8.10;4.20;;;25.80;99.90;;;;;;5031186;28;20033;-67
2021/08/12 09:45:33;;;;;;;7.95;4.20;;;26.00;99.90;;;;;;5032353;28;20060;-67
2021/08/12 09:48:14;;;;;;;10.80;5.28;;;25.90;99.90;;;;;;5032585;28;20045;-66
2021/08/12 09:50:42;;;;;;;7.18;4.72;;;26.30;99.90;;;;;;5035081;28;20030;-67
2021/08/12 09:53:17;;;;;;;11.43;4.78;;;26.40;99.90;;;;;;5032453;28;20029;-66
2021/08/12 09:55:44;;;;;;;11.48;5.00;;;26.60;99.90;;;;;;5032580;28;20383;-66
2021/08/12 09:58:12;;;;;;;8.05;4.22;;;26.60;99.90;;;;;;5030895;28;20037;-67
2021/08/12 10:00:46;;;;;;;9.63;4.63;;;26.70;99.90;;;;;;5032006;28;20372;-67
2021/08/12 10:03:32;;;;;;;9.13;4.40;;;26.80;99.90;;;;;;5031133;28;20030;-66
2021/08/12 10:06:03;;;;;;;13.05;6.47;;;27.00;99.90;;;;;;5032252;28;20033;-67
2021/08/12 10:08:36;;;;;;;7.43;4.13;;;27.30;99.90;;;;;;5032259;28;20029;-66
2021/08/12 10:11:28;;;;;;;8.13;5.00;;;27.50;99.50;;;;;;5030995;28;20117;-66
2021/08/12 10:14:01;;;;;;;8.25;4.60;;;27.90;98.90;;;;;;5032324;28;20033;-66
2021/08/12 10:16:31;;;;;;;7.72;4.18;;;27.60;98.90;;;;;;5032372;28;20042;-66
2021/08/12 10:18:58;;;;;;;11.10;4.70;;;27.90;98.60;;;;;;5032064;28;20539;-67
2021/08/12 10:21:26;;;;;;;8.45;4.10;;;27.60;97.40;;;;;;5031082;28;20120;-66
2021/08/12 10:23:59;;;;;;;9.10;4.50;;;27.80;98.30;;;;;;5031850;28;20030;-67
2021/08/12 10:26:28;;;;;;;9.38;4.57;;;28.20;98.10;;;;;;5032302;28;20141;-66
2021/08/12 10:29:23;;;;;;;6.00;3.63;;;28.10;98.10;;;;;;5036265;28;20490;-66
2021/08/12 10:31:52;;;;;;;6.40;4.00;;;28.10;97.60;;;;;;5035134;28;20038;-66
2021/08/12 10:34:18;;;;;;;7.35;3.92;;;28.00;97.60;;;;;;5018825;28;20034;-66
2021/08/12 10:36:45;;;;;;;9.18;5.57;;;28.00;97.50;;;;;;5036010;28;20124;-66
2021/08/12 10:39:13;;;;;;;10.25;5.05;;;28.30;97.20;;;;;;5035935;28;20034;-66
2021/08/12 10:41:41;;;;;;;8.55;4.45;;;28.20;97.00;;;;;;5034533;28;20466;-67
2021/08/12 10:44:07;;;;;;;8.02;4.60;;;28.20;97.20;;;;;;5034507;28;20441;-67
2021/08/12 10:46:41;;;;;;;9.23;5.22;;;28.60;95.90;;;;;;5035638;28;20033;-67
2021/08/12 10:49:31;;;;;;;8.82;4.82;;;28.90;95.20;;;;;;5035795;28;20033;-67
2021/08/12 10:52:06;;;;;;;7.90;4.53;;;29.20;95.50;;;;;;5035545;28;20060;-66
2021/08/12 10:54:36;;;;;;;10.13;4.57;;;28.80;95.60;;;;;;5035790;28;20561;-66
2021/08/12 10:57:20;;;;;;;7.30;4.30;;;28.50;96.10;;;;;;5035752;28;20029;-66
2021/08/12 10:59:49;;;;;;;8.60;4.43;;;28.70;96.10;;;;;;5035439;28;20623;-66
2021/08/12 11:02:27;;;;;;;8.13;4.00;;;28.90;96.60;;;;;;5034382;28;20026;-66
2021/08/12 11:04:55;;;;;;;10.75;4.47;;;28.80;95.70;;;;;;5035312;28;20040;-66
2021/08/12 11:07:39;;;;;;;7.35;4.07;;;28.80;96.20;;;;;;5035348;28;20363;-66
2021/08/12 11:10:13;;;;;;;8.07;4.07;;;29.10;95.50;;;;;;5034387;28;20045;-66
2021/08/12 11:12:57;;;;;;;6.82;3.95;;;29.20;94.80;;;;;;5034195;28;20030;-66
2021/08/12 11:15:41;;;;;;;6.18;3.92;;;29.50;95.30;;;;;;5034492;28;20421;-66
2021/08/12 11:18:14;;;;;;;9.48;4.78;;;29.80;94.30;;;;;;5035050;28;20097;-66
2021/08/12 11:20:44;;;;;;;13.55;4.38;;;29.50;94.10;;;;;;5033723;28;20039;-65
2021/08/12 11:23:32;;;;;;;6.70;4.07;;;29.20;94.60;;;;;;5034835;28;20056;-69
2021/08/12 11:26:01;;;;;;;6.95;4.22;;;29.80;94.30;;;;;;5026571;28;20091;-71
2021/08/12 11:28:39;;;;;;;6.22;3.97;;;29.40;93.00;;;;;;5033426;28;20037;-69
2021/08/12 11:31:29;;;;;;;8.20;4.18;;;29.10;93.20;;;;;;5034796;28;20038;-68
2021/08/12 11:34:01;;;;;;;6.90;3.67;;;29.00;93.50;;;;;;5034415;28;20037;-69
2021/08/12 11:36:38;;;;;;;7.93;4.55;;;29.40;94.20;;;;;;5033434;28;20037;-69
2021/08/12 11:39:07;;;;;;;6.65;4.13;;;29.80;94.00;;;;;;5032901;28;20117;-70
2021/08/12 11:41:40;;;;;;;7.63;3.80;;;30.00;93.20;;;;;;5033668;28;20033;-69
2021/08/12 11:44:14;;;;;;;9.80;3.70;;;30.50;93.60;;;;;;5019387;28;20017;-70
2021/08/12 11:46:41;;;;;;;6.68;4.30;;;30.30;92.40;;;;;;5034689;28;20029;-71
2021/08/12 11:49:16;;;;;;;7.07;4.18;;;30.50;91.90;;;;;;5033048;28;20037;-72
2021/08/12 11:51:44;;;;;;;9.52;4.55;;;30.70;92.00;;;;;;5033115;28;20041;-69
2021/08/12 11:54:11;;;;;;;8.07;4.47;;;30.20;91.60;;;;;;5033053;28;20034;-69
2021/08/12 11:56:38;;;;;;;9.63;4.22;;;29.60;91.60;;;;;;5034266;28;20489;-69
2021/08/12 11:59:04;;;;;;;7.80;4.00;;;29.60;91.90;;;;;;5033051;28;20068;-69
2021/08/12 12:01:35;;;;;;;9.50;4.40;;;29.60;92.80;;;;;;5033207;28;20052;-68
2021/08/12 12:04:07;;;;;;;;;;;30.00;92.30;;;;;;5034515;28;20079;-68
2021/08/12 12:06:44;;;;;;;8.93;4.28;;;30.20;92.40;;;;;;5033768;28;20365;-68
2021/08/12 12:09:32;;;;;;;10.30;4.93;;;30.40;92.20;;;;;;5033202;28;20037;-68
2021/08/12 12:12:12;;;;;;;9.10;4.25;;;29.90;91.60;;;;;;5033910;28;20104;-68
2021/08/12 12:14:42;;;;;;;7.38;4.47;;;30.50;91.70;;;;;;5032361;28;20346;-68
2021/08/12 12:17:15;;;;;;;6.47;4.05;;;30.60;90.90;;;;;;5032459;28;20033;-68
2021/08/12 12:19:59;;;;;;;7.85;4.18;;;30.50;91.30;;;;;;5033864;28;20040;-69
2021/08/12 12:22:27;;;;;;;6.75;4.28;;;30.30;91.40;;;;;;5033916;28;20037;-68
2021/08/12 12:24:53;;;;;;;8.00;4.35;;;30.80;91.40;;;;;;5032816;28;20025;-69
2021/08/12 12:27:21;;;;;;;5.68;3.50;;;30.70;91.30;;;;;;5032335;28;20038;-68
2021/08/12 12:29:48;;;;;;;9.13;4.18;;;30.60;91.30;;;;;;5032940;28;20113;-69
2021/08/12 12:32:15;;;;;;;8.13;4.22;;;31.30;88.50;;;;;;5033757;28;20064;-68
2021/08/12 12:34:53;;;;;;;5.60;3.90;;;31.20;87.30;;;;;;5033345;28;20025;-68
2021/08/12 12:37:22;;;;;;;9.25;4.50;;;31.60;88.50;;;;;;5048876;28;20045;-69
2021/08/12 12:39:50;;;;;;;8.50;4.32;;;31.20;89.00;;;;;;5032263;28;20033;-68
2021/08/12 12:42:18;;;;;;;8.02;4.15;;;31.30;88.00;;;;;;5031938;28;20109;-69
2021/08/12 12:45:08;;;;;;;8.80;4.53;;;30.90;90.20;;;;;;5033615;28;20060;-69
2021/08/12 12:47:36;;;;;;;7.20;4.03;;;31.30;87.80;;;;;;5033322;28;20049;-68
2021/08/12 12:50:23;;;;;;;7.63;4.13;;;31.50;88.00;;;;;;5032166;28;20092;-69
2021/08/12 12:53:03;;;;;;;10.13;4.50;;;31.90;85.50;;;;;;5033084;28;20051;-68
2021/08/12 12:55:51;;;;;;;8.27;4.40;;;31.60;84.40;;;;;;5033331;28;20033;-69
2021/08/12 12:58:23;;;;;;;9.30;4.55;;;31.80;84.90;;;;;;5016235;28;20041;-69